sensor_id;sensor_type;location;lat;lon;timestamp;P1;durP1;ratioP1;P2;durP2;ratioP2
45620;SDS011;31345;51.522;10.702;2022-08-11T00:00:31;4.40;;;1.70;;
45620;SDS011;31345;51.522;10.702;2022-08-11T00:03:02;5.22;;;2.55;;
45620;SDS011;31345;51.522;10.702;2022-08-11T00:05:32;3.25;;;1.50;;
45620;SDS011;31345;51.522;10.702;2022-08-11T00:08:09;3.95;;;1.67;;
45620;SDS011;31345;51.522;10.702;2022-08-11T00:10:39;3.10;;;1.60;;
45620;SDS011;31345;51.522;10.702;2022-08-11T00:13:06;2.20;;;1.48;;
45620;SDS011;31345;51.522;10.702;2022-08-11T00:15:37;3.67;;;1.58;;
45620;SDS011;31345;51.522;10.702;2022-08-11T00:18:08;4.30;;;1.77;;
45620;SDS011;31345;51.522;10.702;2022-08-11T00:20:38;2.95;;;1.67;;
45620;SDS011;31345;51.522;10.702;2022-08-11T00:23:08;2.92;;;1.90;;
45620;SDS011;31345;51.522;10.702;2022-08-11T00:25:40;6.65;;;1.85;;
45620;SDS011;31345;51.522;10.702;2022-08-11T00:28:22;3.45;;;1.77;;
45620;SDS011;31345;51.522;10.702;2022-08-11T00:30:51;3.80;;;1.73;;
45620;SDS011;31345;51.522;10.702;2022-08-11T00:33:21;2.83;;;1.75;;
45620;SDS011;31345;51.522;10.702;2022-08-11T00:35:50;7.93;;;1.88;;
45620;SDS011;31345;51.522;10.702;2022-08-11T00:38:27;4.15;;;1.73;;
45620;SDS011;31345;51.522;10.702;2022-08-11T00:41:00;2.67;;;1.83;;
45620;SDS011;31345;51.522;10.702;2022-08-11T00:43:49;3.08;;;1.90;;
45620;SDS011;31345;51.522;10.702;2022-08-11T00:49:08;5.93;;;1.50;;
45620;SDS011;31345;51.522;10.702;2022-08-11T00:51:52;4.00;;;1.77;;
45620;SDS011;31345;51.522;10.702;2022-08-11T00:54:30;6.32;;;2.33;;
45620;SDS011;31345;51.522;10.702;2022-08-11T00:57:24;4.88;;;1.88;;
45620;SDS011;31345;51.522;10.702;2022-08-11T01:00:17;3.42;;;2.08;;
45620;SDS011;31345;51.522;10.702;2022-08-11T01:03:06;2.65;;;1.50;;
45620;SDS011;31345;51.522;10.702;2022-08-11T01:05:55;3.88;;;2.00;;
45620;SDS011;31345;51.522;10.702;2022-08-11T01:08:40;4.03;;;1.80;;
45620;SDS011;31345;51.522;10.702;2022-08-11T01:11:25;4.15;;;2.17;;
45620;SDS011;31345;51.522;10.702;2022-08-11T01:14:26;5.30;;;1.98;;
45620;SDS011;31345;51.522;10.702;2022-08-11T01:20:32;2.40;;;1.80;;
45620;SDS011;31345;51.522;10.702;2022-08-11T01:27:06;2.65;;;1.67;;
45620;SDS011;31345;51.522;10.702;2022-08-11T01:39:34;3.10;;;1.63;;
45620;SDS011;31345;51.522;10.702;2022-08-11T01:45:39;3.28;;;1.80;;
45620;SDS011;31345;51.522;10.702;2022-08-11T01:48:16;4.55;;;1.80;;
45620;SDS011;31345;51.522;10.702;2022-08-11T01:51:02;4.20;;;1.80;;
45620;SDS011;31345;51.522;10.702;2022-08-11T01:53:46;6.10;;;2.20;;
45620;SDS011;31345;51.522;10.702;2022-08-11T01:56:26;5.78;;;2.30;;
45620;SDS011;31345;51.522;10.702;2022-08-11T01:59:07;6.93;;;2.33;;
45620;SDS011;31345;51.522;10.702;2022-08-11T02:01:44;4.90;;;2.00;;
45620;SDS011;31345;51.522;10.702;2022-08-11T02:04:29;2.60;;;1.80;;
45620;SDS011;31345;51.522;10.702;2022-08-11T02:07:02;3.20;;;1.83;;
45620;SDS011;31345;51.522;10.702;2022-08-11T02:09:42;7.50;;;2.55;;
45620;SDS011;31345;51.522;10.702;2022-08-11T02:12:28;3.13;;;2.22;;
45620;SDS011;31345;51.522;10.702;2022-08-11T02:15:07;5.22;;;1.90;;
45620;SDS011;31345;51.522;10.702;2022-08-11T02:17:49;6.07;;;2.13;;
45620;SDS011;31345;51.522;10.702;2022-08-11T02:20:26;4.57;;;1.70;;
45620;SDS011;31345;51.522;10.702;2022-08-11T02:23:24;6.57;;;2.25;;
45620;SDS011;31345;51.522;10.702;2022-08-11T02:26:10;3.13;;;2.05;;
45620;SDS011;31345;51.522;10.702;2022-08-11T02:28:50;3.58;;;2.00;;
45620;SDS011;31345;51.522;10.702;2022-08-11T02:31:29;5.00;;;1.75;;
45620;SDS011;31345;51.522;10.702;2022-08-11T02:34:30;3.20;;;1.92;;
45620;SDS011;31345;51.522;10.702;2022-08-11T02:37:09;3.55;;;1.85;;
45620;SDS011;31345;51.522;10.702;2022-08-11T02:39:54;4.00;;;2.38;;
45620;SDS011;31345;51.522;10.702;2022-08-11T02:42:39;4.45;;;2.22;;
45620;SDS011;31345;51.522;10.702;2022-08-11T02:45:27;4.80;;;2.25;;
45620;SDS011;31345;51.522;10.702;2022-08-11T02:48:07;4.97;;;2.03;;
45620;SDS011;31345;51.522;10.702;2022-08-11T02:51:04;4.32;;;2.25;;
45620;SDS011;31345;51.522;10.702;2022-08-11T02:53:45;4.20;;;1.85;;
45620;SDS011;31345;51.522;10.702;2022-08-11T02:56:26;4.40;;;2.25;;
45620;SDS011;31345;51.522;10.702;2022-08-11T02:59:07;3.95;;;1.83;;
45620;SDS011;31345;51.522;10.702;2022-08-11T03:02:06;3.45;;;1.77;;
45620;SDS011;31345;51.522;10.702;2022-08-11T03:07:38;4.22;;;2.10;;
45620;SDS011;31345;51.522;10.702;2022-08-11T03:10:20;4.85;;;2.17;;
45620;SDS011;31345;51.522;10.702;2022-08-11T03:12:56;6.55;;;2.20;;
45620;SDS011;31345;51.522;10.702;2022-08-11T03:15:51;3.63;;;2.13;;
45620;SDS011;31345;51.522;10.702;2022-08-11T03:18:53;3.60;;;1.90;;
45620;SDS011;31345;51.522;10.702;2022-08-11T03:21:31;4.05;;;2.10;;
45620;SDS011;31345;51.522;10.702;2022-08-11T03:24:12;3.20;;;2.10;;
45620;SDS011;31345;51.522;10.702;2022-08-11T03:26:46;4.25;;;2.00;;
45620;SDS011;31345;51.522;10.702;2022-08-11T03:29:29;3.97;;;1.90;;
45620;SDS011;31345;51.522;10.702;2022-08-11T03:32:04;4.35;;;2.05;;
45620;SDS011;31345;51.522;10.702;2022-08-11T03:34:36;3.90;;;2.28;;
45620;SDS011;31345;51.522;10.702;2022-08-11T03:37:10;4.07;;;2.35;;
45620;SDS011;31345;51.522;10.702;2022-08-11T03:40:08;5.35;;;2.10;;
45620;SDS011;31345;51.522;10.702;2022-08-11T03:43:06;5.82;;;2.50;;
45620;SDS011;31345;51.522;10.702;2022-08-11T03:45:49;5.53;;;2.20;;
45620;SDS011;31345;51.522;10.702;2022-08-11T03:48:28;3.15;;;2.13;;
45620;SDS011;31345;51.522;10.702;2022-08-11T03:51:12;3.80;;;2.13;;
45620;SDS011;31345;51.522;10.702;2022-08-11T03:53:55;5.20;;;2.28;;
45620;SDS011;31345;51.522;10.702;2022-08-11T03:57:01;5.40;;;2.33;;
45620;SDS011;31345;51.522;10.702;2022-08-11T04:00:19;4.95;;;2.60;;
45620;SDS011;31345;51.522;10.702;2022-08-11T04:03:24;4.60;;;2.58;;
45620;SDS011;31345;51.522;10.702;2022-08-11T04:06:37;6.88;;;2.40;;
45620;SDS011;31345;51.522;10.702;2022-08-11T04:09:38;7.22;;;2.60;;
45620;SDS011;31345;51.522;10.702;2022-08-11T04:12:48;5.55;;;2.45;;
45620;SDS011;31345;51.522;10.702;2022-08-11T04:15:44;4.00;;;2.13;;
45620;SDS011;31345;51.522;10.702;2022-08-11T04:18:38;5.82;;;2.55;;
45620;SDS011;31345;51.522;10.702;2022-08-11T04:24:45;7.50;;;2.50;;
45620;SDS011;31345;51.522;10.702;2022-08-11T04:27:34;9.85;;;2.90;;
45620;SDS011;31345;51.522;10.702;2022-08-11T04:30:22;8.43;;;2.72;;
45620;SDS011;31345;51.522;10.702;2022-08-11T04:33:09;7.05;;;2.90;;
45620;SDS011;31345;51.522;10.702;2022-08-11T04:36:08;9.13;;;3.13;;
45620;SDS011;31345;51.522;10.702;2022-08-11T04:39:15;5.97;;;2.55;;
45620;SDS011;31345;51.522;10.702;2022-08-11T04:42:10;6.25;;;3.10;;
45620;SDS011;31345;51.522;10.702;2022-08-11T04:45:27;5.53;;;2.53;;
45620;SDS011;31345;51.522;10.702;2022-08-11T04:48:16;6.55;;;2.80;;
45620;SDS011;31345;51.522;10.702;2022-08-11T04:51:21;6.45;;;3.40;;
45620;SDS011;31345;51.522;10.702;2022-08-11T04:54:27;8.00;;;3.28;;
45620;SDS011;31345;51.522;10.702;2022-08-11T04:57:31;8.95;;;2.90;;
45620;SDS011;31345;51.522;10.702;2022-08-11T05:00:27;5.72;;;2.85;;
45620;SDS011;31345;51.522;10.702;2022-08-11T05:03:38;5.78;;;2.63;;
45620;SDS011;31345;51.522;10.702;2022-08-11T05:06:34;5.60;;;2.70;;
45620;SDS011;31345;51.522;10.702;2022-08-11T05:09:37;4.97;;;2.60;;
45620;SDS011;31345;51.522;10.702;2022-08-11T05:12:28;7.57;;;3.05;;
45620;SDS011;31345;51.522;10.702;2022-08-11T05:15:09;8.45;;;3.10;;
45620;SDS011;31345;51.522;10.702;2022-08-11T05:17:59;6.25;;;2.83;;
45620;SDS011;31345;51.522;10.702;2022-08-11T05:20:54;3.70;;;2.60;;
45620;SDS011;31345;51.522;10.702;2022-08-11T05:23:42;4.10;;;2.70;;
45620;SDS011;31345;51.522;10.702;2022-08-11T05:26:35;5.00;;;2.83;;
45620;SDS011;31345;51.522;10.702;2022-08-11T05:29:38;6.30;;;2.47;;
45620;SDS011;31345;51.522;10.702;2022-08-11T05:32:27;5.45;;;2.70;;
45620;SDS011;31345;51.522;10.702;2022-08-11T05:35:23;5.60;;;2.63;;
45620;SDS011;31345;51.522;10.702;2022-08-11T05:37:54;4.78;;;2.90;;
45620;SDS011;31345;51.522;10.702;2022-08-11T05:40:45;6.07;;;2.70;;
45620;SDS011;31345;51.522;10.702;2022-08-11T05:43:38;5.15;;;2.40;;
45620;SDS011;31345;51.522;10.702;2022-08-11T05:46:29;3.33;;;2.20;;
45620;SDS011;31345;51.522;10.702;2022-08-11T05:49:23;2.90;;;2.35;;
45620;SDS011;31345;51.522;10.702;2022-08-11T05:52:13;4.10;;;2.33;;
45620;SDS011;31345;51.522;10.702;2022-08-11T05:55:01;4.07;;;2.53;;
45620;SDS011;31345;51.522;10.702;2022-08-11T05:57:53;4.45;;;2.47;;
45620;SDS011;31345;51.522;10.702;2022-08-11T06:00:23;3.03;;;2.28;;
45620;SDS011;31345;51.522;10.702;2022-08-11T06:02:53;6.07;;;2.22;;
45620;SDS011;31345;51.522;10.702;2022-08-11T06:05:31;6.65;;;2.80;;
45620;SDS011;31345;51.522;10.702;2022-08-11T06:08:01;5.47;;;2.45;;
45620;SDS011;31345;51.522;10.702;2022-08-11T06:10:31;6.32;;;2.58;;
45620;SDS011;31345;51.522;10.702;2022-08-11T06:13:02;4.28;;;2.40;;
45620;SDS011;31345;51.522;10.702;2022-08-11T06:15:33;4.23;;;2.30;;
45620;SDS011;31345;51.522;10.702;2022-08-11T06:18:11;4.53;;;2.50;;
45620;SDS011;31345;51.522;10.702;2022-08-11T06:20:44;5.50;;;2.53;;
45620;SDS011;31345;51.522;10.702;2022-08-11T06:23:13;4.28;;;2.45;;
45620;SDS011;31345;51.522;10.702;2022-08-11T06:25:49;8.55;;;2.25;;
45620;SDS011;31345;51.522;10.702;2022-08-11T06:28:18;8.55;;;2.72;;
45620;SDS011;31345;51.522;10.702;2022-08-11T06:30:58;5.70;;;2.63;;
45620;SDS011;31345;51.522;10.702;2022-08-11T06:33:32;9.20;;;2.35;;
45620;SDS011;31345;51.522;10.702;2022-08-11T06:36:05;6.75;;;2.45;;
45620;SDS011;31345;51.522;10.702;2022-08-11T06:38:48;5.50;;;2.10;;
45620;SDS011;31345;51.522;10.702;2022-08-11T06:41:26;7.30;;;2.70;;
45620;SDS011;31345;51.522;10.702;2022-08-11T06:44:08;6.57;;;2.50;;
45620;SDS011;31345;51.522;10.702;2022-08-11T06:46:51;5.63;;;2.22;;
45620;SDS011;31345;51.522;10.702;2022-08-11T06:49:31;3.88;;;2.28;;
45620;SDS011;31345;51.522;10.702;2022-08-11T06:52:19;10.27;;;3.10;;
45620;SDS011;31345;51.522;10.702;2022-08-11T06:54:57;11.27;;;2.97;;
45620;SDS011;31345;51.522;10.702;2022-08-11T06:57:32;7.65;;;2.80;;
45620;SDS011;31345;51.522;10.702;2022-08-11T07:00:18;9.82;;;2.40;;
45620;SDS011;31345;51.522;10.702;2022-08-11T07:02:59;9.45;;;2.55;;
45620;SDS011;31345;51.522;10.702;2022-08-11T07:05:37;8.75;;;2.55;;
45620;SDS011;31345;51.522;10.702;2022-08-11T07:11:55;7.25;;;2.80;;
45620;SDS011;31345;51.522;10.702;2022-08-11T07:14:58;7.40;;;2.80;;
45620;SDS011;31345;51.522;10.702;2022-08-11T07:17:50;13.25;;;2.83;;
45620;SDS011;31345;51.522;10.702;2022-08-11T07:20:35;8.15;;;2.78;;
45620;SDS011;31345;51.522;10.702;2022-08-11T07:23:23;10.48;;;3.17;;
45620;SDS011;31345;51.522;10.702;2022-08-11T07:26:10;5.43;;;2.42;;
45620;SDS011;31345;51.522;10.702;2022-08-11T07:28:57;7.15;;;2.63;;
45620;SDS011;31345;51.522;10.702;2022-08-11T07:31:30;5.75;;;2.47;;
45620;SDS011;31345;51.522;10.702;2022-08-11T07:34:04;7.80;;;2.60;;
45620;SDS011;31345;51.522;10.702;2022-08-11T07:36:48;11.63;;;2.83;;
45620;SDS011;31345;51.522;10.702;2022-08-11T07:39:19;5.85;;;2.63;;
45620;SDS011;31345;51.522;10.702;2022-08-11T07:41:49;9.07;;;2.83;;
45620;SDS011;31345;51.522;10.702;2022-08-11T07:44:19;12.57;;;2.60;;
45620;SDS011;31345;51.522;10.702;2022-08-11T07:46:48;6.65;;;2.42;;
45620;SDS011;31345;51.522;10.702;2022-08-11T07:49:34;8.55;;;2.15;;
45620;SDS011;31345;51.522;10.702;2022-08-11T07:52:22;8.60;;;2.42;;
45620;SDS011;31345;51.522;10.702;2022-08-11T07:54:56;10.40;;;2.90;;
45620;SDS011;31345;51.522;10.702;2022-08-11T07:57:26;12.50;;;2.93;;
45620;SDS011;31345;51.522;10.702;2022-08-11T08:00:13;14.05;;;2.72;;
45620;SDS011;31345;51.522;10.702;2022-08-11T08:02:59;12.30;;;2.90;;
45620;SDS011;31345;51.522;10.702;2022-08-11T08:05:46;10.35;;;2.60;;
45620;SDS011;31345;51.522;10.702;2022-08-11T08:08:33;17.63;;;3.35;;
45620;SDS011;31345;51.522;10.702;2022-08-11T08:11:20;11.02;;;3.13;;
45620;SDS011;31345;51.522;10.702;2022-08-11T08:14:06;10.02;;;2.83;;
45620;SDS011;31345;51.522;10.702;2022-08-11T08:16:53;8.68;;;2.83;;
45620;SDS011;31345;51.522;10.702;2022-08-11T08:19:39;4.10;;;2.67;;
45620;SDS011;31345;51.522;10.702;2022-08-11T08:22:14;3.85;;;2.55;;
45620;SDS011;31345;51.522;10.702;2022-08-11T08:24:45;4.55;;;2.58;;
45620;SDS011;31345;51.522;10.702;2022-08-11T08:27:15;5.45;;;2.70;;
45620;SDS011;31345;51.522;10.702;2022-08-11T08:29:43;4.05;;;2.65;;
45620;SDS011;31345;51.522;10.702;2022-08-11T08:32:29;8.77;;;2.90;;
45620;SDS011;31345;51.522;10.702;2022-08-11T08:35:00;5.55;;;2.50;;
45620;SDS011;31345;51.522;10.702;2022-08-11T08:37:30;6.38;;;3.22;;
45620;SDS011;31345;51.522;10.702;2022-08-11T08:42:34;5.97;;;3.20;;
45620;SDS011;31345;51.522;10.702;2022-08-11T08:45:07;6.90;;;2.90;;
45620;SDS011;31345;51.522;10.702;2022-08-11T08:47:37;8.10;;;2.83;;
45620;SDS011;31345;51.522;10.702;2022-08-11T08:50:09;9.57;;;3.05;;
45620;SDS011;31345;51.522;10.702;2022-08-11T08:52:39;6.72;;;3.53;;
45620;SDS011;31345;51.522;10.702;2022-08-11T08:55:14;8.70;;;3.42;;
45620;SDS011;31345;51.522;10.702;2022-08-11T08:57:45;10.02;;;3.08;;
45620;SDS011;31345;51.522;10.702;2022-08-11T09:00:15;7.18;;;2.95;;
45620;SDS011;31345;51.522;10.702;2022-08-11T09:02:43;6.22;;;3.22;;
45620;SDS011;31345;51.522;10.702;2022-08-11T09:07:47;6.68;;;3.33;;
45620;SDS011;31345;51.522;10.702;2022-08-11T09:10:21;8.48;;;3.03;;
45620;SDS011;31345;51.522;10.702;2022-08-11T09:12:49;5.18;;;3.08;;
45620;SDS011;31345;51.522;10.702;2022-08-11T09:15:17;8.93;;;3.20;;
45620;SDS011;31345;51.522;10.702;2022-08-11T09:17:47;6.30;;;3.22;;
45620;SDS011;31345;51.522;10.702;2022-08-11T09:20:19;6.47;;;2.90;;
45620;SDS011;31345;51.522;10.702;2022-08-11T09:22:49;4.90;;;3.13;;
45620;SDS011;31345;51.522;10.702;2022-08-11T09:25:37;7.85;;;3.33;;
45620;SDS011;31345;51.522;10.702;2022-08-11T09:28:22;6.18;;;3.38;;
45620;SDS011;31345;51.522;10.702;2022-08-11T09:30:51;5.05;;;3.38;;
45620;SDS011;31345;51.522;10.702;2022-08-11T09:33:20;5.82;;;3.42;;
45620;SDS011;31345;51.522;10.702;2022-08-11T09:35:49;7.10;;;3.45;;
45620;SDS011;31345;51.522;10.702;2022-08-11T09:38:22;5.40;;;3.60;;
45620;SDS011;31345;51.522;10.702;2022-08-11T09:41:11;7.45;;;3.22;;
45620;SDS011;31345;51.522;10.702;2022-08-11T09:43:41;5.65;;;3.22;;
45620;SDS011;31345;51.522;10.702;2022-08-11T09:46:30;6.05;;;2.90;;
45620;SDS011;31345;51.522;10.702;2022-08-11T09:48:59;10.25;;;3.30;;
45620;SDS011;31345;51.522;10.702;2022-08-11T09:51:28;6.82;;;3.30;;
45620;SDS011;31345;51.522;10.702;2022-08-11T09:53:58;4.18;;;3.08;;
45620;SDS011;31345;51.522;10.702;2022-08-11T09:56:29;4.78;;;3.20;;
45620;SDS011;31345;51.522;10.702;2022-08-11T09:59:16;5.82;;;3.13;;
45620;SDS011;31345;51.522;10.702;2022-08-11T10:01:46;4.80;;;3.50;;
45620;SDS011;31345;51.522;10.702;2022-08-11T10:04:15;7.25;;;3.22;;
45620;SDS011;31345;51.522;10.702;2022-08-11T10:06:47;5.47;;;3.33;;
45620;SDS011;31345;51.522;10.702;2022-08-11T10:09:33;4.57;;;3.00;;
45620;SDS011;31345;51.522;10.702;2022-08-11T10:12:07;5.80;;;3.33;;
45620;SDS011;31345;51.522;10.702;2022-08-11T10:14:40;4.97;;;3.10;;
45620;SDS011;31345;51.522;10.702;2022-08-11T10:17:27;6.90;;;3.28;;
45620;SDS011;31345;51.522;10.702;2022-08-11T10:19:59;4.75;;;3.17;;
45620;SDS011;31345;51.522;10.702;2022-08-11T10:22:29;5.87;;;2.97;;
45620;SDS011;31345;51.522;10.702;2022-08-11T10:25:15;7.97;;;3.20;;
45620;SDS011;31345;51.522;10.702;2022-08-11T10:28:03;5.80;;;3.15;;
45620;SDS011;31345;51.522;10.702;2022-08-11T10:30:34;5.28;;;3.03;;
45620;SDS011;31345;51.522;10.702;2022-08-11T10:33:33;9.32;;;3.40;;
45620;SDS011;31345;51.522;10.702;2022-08-11T10:36:18;5.68;;;3.00;;
45620;SDS011;31345;51.522;10.702;2022-08-11T10:38:46;9.02;;;3.17;;
45620;SDS011;31345;51.522;10.702;2022-08-11T10:41:17;6.78;;;3.35;;
45620;SDS011;31345;51.522;10.702;2022-08-11T10:44:07;5.65;;;3.08;;
45620;SDS011;31345;51.522;10.702;2022-08-11T10:46:36;8.73;;;3.40;;
45620;SDS011;31345;51.522;10.702;2022-08-11T10:49:22;5.30;;;3.30;;
45620;SDS011;31345;51.522;10.702;2022-08-11T10:51:54;3.90;;;3.20;;
45620;SDS011;31345;51.522;10.702;2022-08-11T10:54:40;6.18;;;3.55;;
45620;SDS011;31345;51.522;10.702;2022-08-11T10:57:27;7.28;;;2.90;;
45620;SDS011;31345;51.522;10.702;2022-08-11T11:00:15;7.03;;;3.47;;
45620;SDS011;31345;51.522;10.702;2022-08-11T11:02:44;3.78;;;3.08;;
45620;SDS011;31345;51.522;10.702;2022-08-11T11:05:15;5.97;;;2.85;;
45620;SDS011;31345;51.522;10.702;2022-08-11T11:07:51;5.90;;;3.03;;
45620;SDS011;31345;51.522;10.702;2022-08-11T11:10:25;6.38;;;2.97;;
45620;SDS011;31345;51.522;10.702;2022-08-11T11:12:53;5.18;;;2.58;;
45620;SDS011;31345;51.522;10.702;2022-08-11T11:15:43;7.43;;;3.10;;
45620;SDS011;31345;51.522;10.702;2022-08-11T11:18:31;7.22;;;3.03;;
45620;SDS011;31345;51.522;10.702;2022-08-11T11:21:03;5.75;;;3.17;;
45620;SDS011;31345;51.522;10.702;2022-08-11T11:23:36;6.93;;;3.20;;
45620;SDS011;31345;51.522;10.702;2022-08-11T11:26:16;5.90;;;3.08;;
45620;SDS011;31345;51.522;10.702;2022-08-11T11:29:02;4.72;;;2.90;;
45620;SDS011;31345;51.522;10.702;2022-08-11T11:31:44;5.72;;;3.50;;
45620;SDS011;31345;51.522;10.702;2022-08-11T11:34:34;7.30;;;3.92;;
45620;SDS011;31345;51.522;10.702;2022-08-11T11:37:18;5.20;;;3.15;;
45620;SDS011;31345;51.522;10.702;2022-08-11T11:39:46;8.18;;;3.25;;
45620;SDS011;31345;51.522;10.702;2022-08-11T11:42:14;6.72;;;3.22;;
45620;SDS011;31345;51.522;10.702;2022-08-11T11:44:44;7.80;;;3.17;;
45620;SDS011;31345;51.522;10.702;2022-08-11T11:47:14;6.82;;;3.50;;
45620;SDS011;31345;51.522;10.702;2022-08-11T11:49:48;5.57;;;2.80;;
45620;SDS011;31345;51.522;10.702;2022-08-11T11:52:16;10.15;;;2.90;;
45620;SDS011;31345;51.522;10.702;2022-08-11T11:54:47;7.07;;;3.03;;
45620;SDS011;31345;51.522;10.702;2022-08-11T11:57:20;8.25;;;3.08;;
45620;SDS011;31345;51.522;10.702;2022-08-11T12:00:06;7.65;;;3.28;;
45620;SDS011;31345;51.522;10.702;2022-08-11T12:02:55;4.03;;;2.80;;
45620;SDS011;31345;51.522;10.702;2022-08-11T12:05:25;4.88;;;3.10;;
45620;SDS011;31345;51.522;10.702;2022-08-11T12:07:53;4.85;;;3.35;;
45620;SDS011;31345;51.522;10.702;2022-08-11T12:10:44;5.03;;;2.97;;
45620;SDS011;31345;51.522;10.702;2022-08-11T12:13:16;7.88;;;2.92;;
45620;SDS011;31345;51.522;10.702;2022-08-11T12:16:03;7.32;;;2.95;;
45620;SDS011;31345;51.522;10.702;2022-08-11T12:18:33;5.85;;;2.95;;
45620;SDS011;31345;51.522;10.702;2022-08-11T12:21:02;11.17;;;3.57;;
45620;SDS011;31345;51.522;10.702;2022-08-11T12:23:31;5.25;;;3.00;;
45620;SDS011;31345;51.522;10.702;2022-08-11T12:26:18;7.60;;;3.10;;
45620;SDS011;31345;51.522;10.702;2022-08-11T12:29:19;7.33;;;2.90;;
45620;SDS011;31345;51.522;10.702;2022-08-11T12:31:50;5.25;;;2.75;;
45620;SDS011;31345;51.522;10.702;2022-08-11T12:34:20;6.15;;;3.30;;
45620;SDS011;31345;51.522;10.702;2022-08-11T12:36:51;5.95;;;2.85;;
45620;SDS011;31345;51.522;10.702;2022-08-11T12:39:24;5.28;;;2.70;;
45620;SDS011;31345;51.522;10.702;2022-08-11T12:42:07;4.57;;;3.05;;
45620;SDS011;31345;51.522;10.702;2022-08-11T12:44:54;5.65;;;2.75;;
45620;SDS011;31345;51.522;10.702;2022-08-11T12:47:42;4.63;;;2.63;;
45620;SDS011;31345;51.522;10.702;2022-08-11T12:50:34;6.68;;;2.85;;
45620;SDS011;31345;51.522;10.702;2022-08-11T12:53:21;4.95;;;3.40;;
45620;SDS011;31345;51.522;10.702;2022-08-11T12:55:53;5.97;;;3.10;;
45620;SDS011;31345;51.522;10.702;2022-08-11T12:58:40;5.38;;;2.80;;
45620;SDS011;31345;51.522;10.702;2022-08-11T13:01:10;5.22;;;3.25;;
45620;SDS011;31345;51.522;10.702;2022-08-11T13:03:56;6.00;;;3.00;;
45620;SDS011;31345;51.522;10.702;2022-08-11T13:06:43;5.63;;;2.92;;
45620;SDS011;31345;51.522;10.702;2022-08-11T13:09:11;6.07;;;2.83;;
45620;SDS011;31345;51.522;10.702;2022-08-11T13:11:40;5.55;;;2.60;;
45620;SDS011;31345;51.522;10.702;2022-08-11T13:14:26;8.32;;;2.90;;
45620;SDS011;31345;51.522;10.702;2022-08-11T13:16:53;12.23;;;2.72;;
45620;SDS011;31345;51.522;10.702;2022-08-11T13:19:40;4.22;;;2.90;;
45620;SDS011;31345;51.522;10.702;2022-08-11T13:22:11;3.10;;;2.63;;
45620;SDS011;31345;51.522;10.702;2022-08-11T13:24:39;6.38;;;3.30;;
45620;SDS011;31345;51.522;10.702;2022-08-11T13:27:07;5.07;;;2.70;;
45620;SDS011;31345;51.522;10.702;2022-08-11T13:29:37;5.35;;;2.70;;
45620;SDS011;31345;51.522;10.702;2022-08-11T13:32:12;8.23;;;2.80;;
45620;SDS011;31345;51.522;10.702;2022-08-11T13:34:41;5.65;;;2.85;;
45620;SDS011;31345;51.522;10.702;2022-08-11T13:37:14;4.53;;;2.92;;
45620;SDS011;31345;51.522;10.702;2022-08-11T13:39:48;3.90;;;2.63;;
45620;SDS011;31345;51.522;10.702;2022-08-11T13:42:16;5.18;;;2.83;;
45620;SDS011;31345;51.522;10.702;2022-08-11T13:44:46;7.63;;;3.10;;
45620;SDS011;31345;51.522;10.702;2022-08-11T13:47:15;4.72;;;2.55;;
45620;SDS011;31345;51.522;10.702;2022-08-11T13:49:43;3.92;;;2.80;;
45620;SDS011;31345;51.522;10.702;2022-08-11T13:52:17;7.03;;;2.95;;
45620;SDS011;31345;51.522;10.702;2022-08-11T13:54:46;8.18;;;2.65;;
45620;SDS011;31345;51.522;10.702;2022-08-11T13:57:16;6.22;;;2.75;;
45620;SDS011;31345;51.522;10.702;2022-08-11T13:59:45;6.20;;;3.00;;
45620;SDS011;31345;51.522;10.702;2022-08-11T14:02:20;5.40;;;3.03;;
45620;SDS011;31345;51.522;10.702;2022-08-11T14:04:54;3.60;;;2.53;;
45620;SDS011;31345;51.522;10.702;2022-08-11T14:07:29;4.18;;;2.63;;
45620;SDS011;31345;51.522;10.702;2022-08-11T14:10:00;4.75;;;2.67;;
45620;SDS011;31345;51.522;10.702;2022-08-11T14:12:31;8.07;;;2.83;;
45620;SDS011;31345;51.522;10.702;2022-08-11T14:15:19;6.55;;;2.72;;
45620;SDS011;31345;51.522;10.702;2022-08-11T14:17:50;4.18;;;2.63;;
45620;SDS011;31345;51.522;10.702;2022-08-11T14:20:20;5.65;;;2.47;;
45620;SDS011;31345;51.522;10.702;2022-08-11T14:23:10;4.75;;;2.63;;
45620;SDS011;31345;51.522;10.702;2022-08-11T14:25:40;6.22;;;2.70;;
45620;SDS011;31345;51.522;10.702;2022-08-11T14:28:29;6.32;;;2.67;;
45620;SDS011;31345;51.522;10.702;2022-08-11T14:31:00;5.50;;;2.67;;
45620;SDS011;31345;51.522;10.702;2022-08-11T14:33:30;3.83;;;2.67;;
45620;SDS011;31345;51.522;10.702;2022-08-11T14:36:00;6.95;;;2.65;;
45620;SDS011;31345;51.522;10.702;2022-08-11T14:38:32;6.65;;;3.15;;
45620;SDS011;31345;51.522;10.702;2022-08-11T14:43:48;7.63;;;2.38;;
45620;SDS011;31345;51.522;10.702;2022-08-11T14:46:34;5.28;;;2.40;;
45620;SDS011;31345;51.522;10.702;2022-08-11T14:49:23;7.35;;;2.80;;
45620;SDS011;31345;51.522;10.702;2022-08-11T14:54:22;6.05;;;2.80;;
45620;SDS011;31345;51.522;10.702;2022-08-11T14:57:09;6.95;;;2.70;;
45620;SDS011;31345;51.522;10.702;2022-08-11T14:59:40;6.28;;;3.00;;
45620;SDS011;31345;51.522;10.702;2022-08-11T15:02:09;5.43;;;2.80;;
45620;SDS011;31345;51.522;10.702;2022-08-11T15:04:55;5.88;;;2.50;;
45620;SDS011;31345;51.522;10.702;2022-08-11T15:07:28;6.40;;;3.13;;
45620;SDS011;31345;51.522;10.702;2022-08-11T15:10:00;4.75;;;2.67;;
45620;SDS011;31345;51.522;10.702;2022-08-11T15:12:31;5.28;;;2.47;;
45620;SDS011;31345;51.522;10.702;2022-08-11T15:15:00;4.85;;;2.50;;
45620;SDS011;31345;51.522;10.702;2022-08-11T15:17:48;4.93;;;2.60;;
45620;SDS011;31345;51.522;10.702;2022-08-11T15:20:19;4.15;;;2.42;;
45620;SDS011;31345;51.522;10.702;2022-08-11T15:23:04;4.40;;;2.67;;
45620;SDS011;31345;51.522;10.702;2022-08-11T15:25:52;5.05;;;2.70;;
45620;SDS011;31345;51.522;10.702;2022-08-11T15:28:24;5.88;;;2.33;;
45620;SDS011;31345;51.522;10.702;2022-08-11T15:31:18;5.75;;;2.80;;
45620;SDS011;31345;51.522;10.702;2022-08-11T15:34:07;6.95;;;3.10;;
45620;SDS011;31345;51.522;10.702;2022-08-11T15:36:57;7.78;;;2.58;;
45620;SDS011;31345;51.522;10.702;2022-08-11T15:39:44;5.43;;;2.75;;
45620;SDS011;31345;51.522;10.702;2022-08-11T15:42:29;4.30;;;2.60;;
45620;SDS011;31345;51.522;10.702;2022-08-11T15:45:18;5.20;;;2.60;;
45620;SDS011;31345;51.522;10.702;2022-08-11T15:48:12;4.13;;;2.72;;
45620;SDS011;31345;51.522;10.702;2022-08-11T15:50:44;4.43;;;2.50;;
45620;SDS011;31345;51.522;10.702;2022-08-11T15:53:17;4.68;;;2.35;;
45620;SDS011;31345;51.522;10.702;2022-08-11T15:55:50;4.55;;;2.90;;
45620;SDS011;31345;51.522;10.702;2022-08-11T15:58:21;6.15;;;2.83;;
45620;SDS011;31345;51.522;10.702;2022-08-11T16:01:09;8.43;;;2.60;;
45620;SDS011;31345;51.522;10.702;2022-08-11T16:03:59;6.78;;;2.67;;
45620;SDS011;31345;51.522;10.702;2022-08-11T16:06:40;7.63;;;2.75;;
45620;SDS011;31345;51.522;10.702;2022-08-11T16:09:12;7.28;;;2.97;;
45620;SDS011;31345;51.522;10.702;2022-08-11T16:11:42;8.60;;;2.58;;
45620;SDS011;31345;51.522;10.702;2022-08-11T16:14:13;8.77;;;2.90;;
45620;SDS011;31345;51.522;10.702;2022-08-11T16:17:01;7.32;;;2.60;;
45620;SDS011;31345;51.522;10.702;2022-08-11T16:19:30;6.65;;;2.88;;
45620;SDS011;31345;51.522;10.702;2022-08-11T16:22:01;8.95;;;2.90;;
45620;SDS011;31345;51.522;10.702;2022-08-11T16:24:34;5.25;;;2.55;;
45620;SDS011;31345;51.522;10.702;2022-08-11T16:27:07;4.60;;;3.08;;
45620;SDS011;31345;51.522;10.702;2022-08-11T16:29:41;7.47;;;2.78;;
45620;SDS011;31345;51.522;10.702;2022-08-11T16:32:14;6.45;;;2.80;;